Time;durP1;ratioP1;P1;durP2;ratioP2;P2;SDS_P1;SDS_P2;PMS_P1;PMS_P2;Temp;Humidity;BMP_temperature;BMP_pressure;BME280_temperature;BME280_humidity;BME280_pressure;Samples;Min_cycle;Max_cycle;Signal;HPM_P1;HPM_P2
2021/04/17 00:01:22;;;;;;;18.62;6.60;;;;;;;6.04;59.55;102139.25;4432243;32;20054;-72
2021/04/17 00:03:48;;;;;;;15.13;6.25;;;;;;;6.03;59.48;102139.63;4422428;32;20445;-72
2021/04/17 00:06:14;;;;;;;15.25;5.85;;;;;;;5.98;59.80;102139.94;4424978;32;20081;-73
2021/04/17 00:08:40;;;;;;;18.65;7.55;;;;;;;5.99;59.71;102139.56;4424447;32;20077;-72
2021/04/17 00:11:06;;;;;;;17.17;8.35;;;;;;;5.97;59.47;102136.38;4422628;32;20428;-73
2021/04/17 00:13:33;;;;;;;18.45;7.97;;;;;;;5.95;59.49;102138.72;4422965;32;20393;-72
2021/04/17 00:15:58;;;;;;;14.98;6.60;;;;;;;5.92;59.78;102141.44;4421193;32;20124;-72
2021/04/17 00:18:24;;;;;;;15.27;6.53;;;;;;;5.97;59.78;102138.34;4420670;32;20139;-72
2021/04/17 00:20:50;;;;;;;15.15;6.93;;;;;;;5.92;59.79;102131.06;4419885;32;20042;-72
2021/04/17 00:23:16;;;;;;;20.27;7.05;;;;;;;5.88;59.93;102133.00;4419598;32;20084;-71
2021/04/17 00:25:42;;;;;;;13.93;6.37;;;;;;;5.91;59.95;102131.44;4420797;32;20114;-72
2021/04/17 00:28:09;;;;;;;11.90;5.68;;;;;;;6.08;59.15;102125.37;4421079;32;20427;-72
2021/04/17 00:30:35;;;;;;;17.33;6.30;;;;;;;5.92;59.65;102124.66;4423078;32;20081;-73
2021/04/17 00:33:01;;;;;;;16.37;7.05;;;;;;;5.85;59.86;102125.37;4421062;32;20508;-72
2021/04/17 00:35:27;;;;;;;14.90;6.53;;;;;;;5.82;59.96;102125.31;4421375;32;20088;-72
2021/04/17 00:37:52;;;;;;;20.37;6.85;;;;;;;5.77;59.95;102120.81;4410199;32;20066;-73
2021/04/17 00:40:18;;;;;;;14.50;7.93;;;;;;;5.70;60.37;102129.06;4409670;32;20034;-73
2021/04/17 00:42:44;;;;;;;14.25;6.85;;;;;;;5.64;60.42;102118.56;4410184;32;20144;-73
2021/04/17 00:45:10;;;;;;;14.82;7.28;;;;;;;5.65;60.70;102123.00;4412316;32;21163;-72
2021/04/17 00:47:36;;;;;;;17.55;7.47;;;;;;;5.69;60.71;102126.66;4412420;32;20106;-72
2021/04/17 00:50:04;;;;;;;17.85;8.23;;;;;;;5.61;61.03;102122.09;4409969;32;20093;-73
2021/04/17 00:52:29;;;;;;;15.05;7.18;;;;;;;5.58;61.10;102120.06;4414266;32;20418;-74
2021/04/17 00:54:55;;;;;;;16.87;7.32;;;;;;;5.55;61.16;102126.38;4412303;32;20101;-72
2021/04/17 00:57:21;;;;;;;18.08;7.00;;;;;;;5.51;61.37;102134.72;4413788;32;20061;-74
2021/04/17 00:59:47;;;;;;;17.05;6.47;;;;;;;5.47;61.54;102128.25;4412339;32;20085;-73
2021/04/17 01:02:18;;;;;;;13.30;6.25;;;;;;;5.69;60.89;102126.66;4413158;32;20388;-72
2021/04/17 01:04:48;;;;;;;15.63;6.78;;;;;;;5.45;61.49;102130.59;4412485;32;20331;-73
2021/04/17 01:07:27;;;;;;;13.02;6.00;;;;;;;5.61;61.19;102131.28;4408033;32;20468;-72
2021/04/17 01:10:18;;;;;;;19.12;6.65;;;;;;;5.80;60.04;102125.66;4410971;32;20438;-74
2021/04/17 01:12:48;;;;;;;15.95;7.40;;;;;;;5.76;60.34;102124.78;4412510;32;20068;-73
2021/04/17 01:15:15;;;;;;;17.77;8.45;;;;;;;5.43;61.40;102121.78;4411931;32;20155;-72
2021/04/17 01:17:45;;;;;;;18.37;9.30;;;;;;;5.31;62.05;102123.94;4411239;32;20054;-74
2021/04/17 01:25:53;;;;;;;16.92;8.68;;;;;;;5.66;61.85;102124.59;3984186;32;15023599;-73
2021/04/17 01:28:21;;;;;;;16.73;8.40;;;;;;;5.66;61.85;102124.59;4430548;32;20041;-74
2021/04/17 01:30:50;;;;;;;21.17;8.93;;;;;;;5.21;62.45;102128.13;4435709;32;20072;-73
2021/04/17 01:33:17;;;;;;;19.08;8.57;;;;;;;5.23;62.53;102113.81;4436957;32;20129;-73
2021/04/17 01:35:47;;;;;;;22.40;8.27;;;;;;;5.44;61.98;102115.03;4433739;32;20037;-73
2021/04/17 01:38:18;;;;;;;17.95;7.70;;;;;;;5.32;62.07;102125.56;4431998;32;20095;-73
2021/04/17 01:40:47;;;;;;;16.60;7.70;;;;;;;5.59;61.42;102118.88;4434181;32;20429;-72
2021/04/17 01:43:14;;;;;;;14.10;6.60;;;;;;;5.51;61.95;102122.72;4433818;32;20065;-73
2021/04/17 01:45:41;;;;;;;16.75;6.62;;;;;;;5.45;61.95;102116.66;4432878;32;20045;-74
2021/04/17 01:48:09;;;;;;;16.27;6.20;;;;;;;5.44;62.11;102123.41;4438079;32;20037;-74
2021/04/17 01:50:35;;;;;;;11.98;6.57;;;;;;;5.53;61.63;102123.16;4429984;32;20135;-74
2021/04/17 01:53:04;;;;;;;13.05;6.60;;;;;;;5.55;61.24;102118.00;4432252;32;20069;-72
2021/04/17 01:55:32;;;;;;;16.33;8.10;;;;;;;5.69;61.00;102126.66;4435937;32;20041;-72
2021/04/17 01:58:00;;;;;;;23.12;8.93;;;;;;;5.72;60.62;102118.34;4434341;32;20063;-72
2021/04/17 02:00:26;;;;;;;23.70;9.13;;;;;;;5.67;60.87;102126.19;4432625;32;20322;-73
2021/04/17 02:02:52;;;;;;;17.45;8.20;;;;;;;5.59;61.25;102132.84;4434689;32;20055;-74
2021/04/17 02:05:18;;;;;;;28.52;9.32;;;;;;;5.59;61.23;102133.62;4434382;32;20045;-72
2021/04/17 02:07:44;;;;;;;18.58;7.05;;;;;;;5.56;61.38;102137.19;4431073;32;20079;-73
2021/04/17 02:10:10;;;;;;;16.08;6.95;;;;;;;5.49;61.52;102128.66;4434483;32;20037;-74
2021/04/17 02:12:36;;;;;;;14.57;6.43;;;;;;;5.45;61.69;102138.97;4430510;32;20465;-74
2021/04/17 02:15:04;;;;;;;15.80;7.22;;;;;;;5.36;62.00;102132.81;4434710;32;20038;-72
2021/04/17 02:20:42;;;;;;;18.33;7.97;;;;;;;5.46;62.49;102146.16;3982858;32;15022399;-72
2021/04/17 02:23:10;;;;;;;20.33;8.65;;;;;;;5.46;62.49;102146.16;4435801;32;20476;-72
2021/04/17 02:25:36;;;;;;;24.00;9.20;;;;;;;4.94;63.68;102134.75;4437939;32;20105;-73
2021/04/17 02:28:04;;;;;;;19.65;9.23;;;;;;;4.88;64.24;102130.63;4433246;32;20056;-71
2021/04/17 02:30:30;;;;;;;22.65;9.95;;;;;;;4.90;64.25;102133.06;4434703;32;20069;-71
2021/04/17 02:32:59;;;;;;;22.75;10.65;;;;;;;4.86;64.57;102134.97;4435548;32;20062;-72
2021/04/17 02:35:25;;;;;;;25.55;9.55;;;;;;;4.85;64.66;102128.56;4434026;32;20081;-71
2021/04/17 02:37:50;;;;;;;23.20;9.07;;;;;;;4.83;65.08;102132.91;4435312;32;20098;-74
2021/04/17 02:40:16;;;;;;;24.20;10.20;;;;;;;4.87;64.59;102131.00;4430700;32;20144;-73
2021/04/17 02:42:42;;;;;;;26.70;10.63;;;;;;;4.83;64.78;102130.12;4434331;32;20076;-75
2021/04/17 02:45:08;;;;;;;31.87;11.93;;;;;;;4.76;65.20;102136.38;4432493;32;20068;-73
2021/04/17 02:47:34;;;;;;;30.50;11.93;;;;;;;4.75;65.15;102136.75;4437299;32;20116;-75
2021/04/17 02:50:00;;;;;;;28.80;11.93;;;;;;;4.72;65.08;102126.31;4434345;32;20549;-75
2021/04/17 02:52:26;;;;;;;27.98;11.65;;;;;;;4.67;65.37;102127.41;4436399;32;20041;-73
2021/04/17 02:54:51;;;;;;;27.65;10.75;;;;;;;4.64;65.43;102128.13;4430197;32;20138;-72
2021/04/17 02:57:17;;;;;;;23.75;10.95;;;;;;;4.66;65.63;102136.94;4429336;32;20438;-74
2021/04/17 02:59:42;;;;;;;22.00;10.00;;;;;;;4.67;65.45;102132.16;4432760;32;20037;-73
2021/04/17 03:02:08;;;;;;;28.35;10.13;;;;;;;4.64;65.52;102130.09;4432916;32;20410;-72
2021/04/17 03:04:34;;;;;;;28.58;11.25;;;;;;;4.64;65.47;102128.13;4431442;32;20499;-72
2021/04/17 03:07:00;;;;;;;32.17;12.15;;;;;;;4.53;65.79;102126.25;4433521;32;20510;-72
2021/04/17 03:09:26;;;;;;;33.22;13.85;;;;;;;4.51;65.55;102121.06;4431885;32;20068;-72
2021/04/17 03:11:52;;;;;;;39.38;13.32;;;;;;;4.49;65.71;102125.37;4432414;32;20720;-72
2021/04/17 03:14:17;;;;;;;35.95;13.75;;;;;;;4.49;65.81;102128.16;4430595;32;20037;-71
2021/04/17 03:16:45;;;;;;;33.30;13.85;;;;;;;4.47;66.04;102133.28;4431225;32;20064;-72
2021/04/17 03:19:11;;;;;;;34.40;13.48;;;;;;;4.46;66.07;102129.72;4433052;32;20045;-72
2021/04/17 03:21:36;;;;;;;45.47;13.88;;;;;;;4.44;66.01;102128.44;4434038;32;20041;-73
2021/04/17 03:24:02;;;;;;;33.08;12.77;;;;;;;4.39;65.99;102126.78;4433422;32;20048;-72
2021/04/17 03:26:28;;;;;;;27.48;11.88;;;;;;;4.34;66.11;102127.03;4436508;32;20093;-73
2021/04/17 03:28:54;;;;;;;29.73;13.57;;;;;;;4.33;66.10;102133.78;4434070;32;20045;-73
2021/04/17 03:31:20;;;;;;;28.25;10.88;;;;;;;4.30;65.99;102130.91;4422624;32;20103;-72
2021/04/17 03:33:46;;;;;;;25.20;10.82;;;;;;;4.28;65.95;102125.72;4422583;32;20427;-71
2021/04/17 03:36:12;;;;;;;24.95;10.38;;;;;;;4.26;66.28;102125.25;4426761;32;20034;-72
2021/04/17 03:38:38;;;;;;;24.27;10.07;;;;;;;4.22;66.12;102123.53;4419333;32;20096;-74
2021/04/17 03:41:04;;;;;;;22.02;9.43;;;;;;;4.51;65.03;102120.25;4422226;32;20077;-72
2021/04/17 03:43:30;;;;;;;21.17;8.93;;;;;;;4.15;66.42;102121.41;4422360;32;20073;-74
2021/04/17 03:45:55;;;;;;;22.37;9.30;;;;;;;4.11;66.97;102120.50;4421515;32;20336;-74
2021/04/17 03:48:21;;;;;;;25.08;9.32;;;;;;;4.04;67.09;102115.59;4415088;32;20450;-73
2021/04/17 03:50:47;;;;;;;18.27;8.25;;;;;;;4.05;67.06;102117.19;4419188;32;20155;-73
2021/04/17 03:53:13;;;;;;;18.45;8.60;;;;;;;4.08;66.85;102108.13;4418808;32;20102;-73
2021/04/17 03:55:38;;;;;;;23.10;9.63;;;;;;;4.08;66.82;102104.50;4419087;32;20030;-73
2021/04/17 03:58:04;;;;;;;18.87;9.50;;;;;;;4.07;66.98;102111.25;4420602;32;20357;-73
2021/04/17 04:00:30;;;;;;;18.87;9.57;;;;;;;4.08;66.77;102107.28;4424621;32;20483;-73
2021/04/17 04:02:56;;;;;;;19.77;8.50;;;;;;;4.04;67.04;102107.22;4424284;32;20100;-72
2021/04/17 04:05:21;;;;;;;18.83;8.40;;;;;;;4.03;67.05;102104.81;4424781;32;20100;-71
2021/04/17 04:07:47;;;;;;;20.02;9.05;;;;;;;4.02;66.90;102101.19;4424916;32;20037;-72
2021/04/17 04:10:14;;;;;;;21.40;9.25;;;;;;;3.97;66.98;102104.28;4419275;32;20112;-72
2021/04/17 04:12:42;;;;;;;19.80;9.40;;;;;;;3.93;66.80;102103.38;4421264;32;20120;-74
2021/04/17 04:15:10;;;;;;;18.50;8.50;;;;;;;3.91;66.97;102104.91;4425481;32;20064;-72
2021/04/17 04:17:36;;;;;;;25.25;8.90;;;;;;;3.98;67.16;102105.88;4421932;32;20033;-73
2021/04/17 04:20:03;;;;;;;17.37;8.48;;;;;;;3.89;67.12;102099.69;4423778;32;20159;-72
2021/04/17 04:22:28;;;;;;;24.10;8.90;;;;;;;3.87;67.21;102095.66;4424671;32;20094;-72
2021/04/17 04:24:54;;;;;;;21.87;8.30;;;;;;;3.79;67.73;102103.03;4419417;32;20106;-73
2021/04/17 04:27:20;;;;;;;21.67;8.63;;;;;;;3.74;67.91;102106.06;4422287;32;20081;-74
2021/04/17 04:29:46;;;;;;;17.42;7.43;;;;;;;3.76;67.96;102100.97;4420448;32;20049;-71
2021/04/17 04:32:11;;;;;;;23.25;9.95;;;;;;;4.05;66.71;102108.03;4424035;32;20127;-72
2021/04/17 04:34:37;;;;;;;16.90;8.20;;;;;;;4.06;66.38;102102.09;4419809;32;20042;-73
2021/04/17 04:37:03;;;;;;;20.02;7.75;;;;;;;3.85;67.07;102098.81;4422034;32;20105;-72
2021/04/17 04:39:28;;;;;;;20.25;8.32;;;;;;;3.71;68.01;102094.84;4421073;32;20067;-73
2021/04/17 04:41:54;;;;;;;26.73;9.10;;;;;;;3.64;68.09;102106.62;4419707;32;20087;-72
2021/04/17 04:44:20;;;;;;;26.87;9.48;;;;;;;3.62;68.09;102099.81;4419037;32;20489;-72
2021/04/17 04:46:46;;;;;;;21.10;9.10;;;;;;;3.62;68.09;102097.03;4419136;32;20064;-72
2021/04/17 04:49:12;;;;;;;25.17;9.57;;;;;;;3.73;67.69;102100.87;4420452;32;20063;-72
2021/04/17 04:51:38;;;;;;;27.13;9.30;;;;;;;3.75;67.43;102096.53;4421465;32;20365;-73
2021/04/17 04:54:04;;;;;;;20.58;8.63;;;;;;;3.65;67.78;102101.88;4420193;32;20026;-73
2021/04/17 04:56:30;;;;;;;23.52;9.20;;;;;;;3.62;67.91;102102.59;4414585;32;20069;-73
2021/04/17 04:58:56;;;;;;;20.15;8.70;;;;;;;3.56;68.24;102098.44;4421852;32;20046;-73
2021/04/17 05:01:21;;;;;;;19.10;8.65;;;;;;;3.57;68.19;102105.63;4419165;32;20124;-73
2021/04/17 05:03:47;;;;;;;26.20;10.02;;;;;;;3.52;68.47;102112.25;4419904;32;20380;-72
2021/04/17 05:06:13;;;;;;;20.85;8.55;;;;;;;3.46;68.62;102110.91;4415582;32;20025;-74
2021/04/17 05:08:38;;;;;;;23.65;9.20;;;;;;;3.51;68.39;102112.63;4422248;32;20037;-72
2021/04/17 05:11:04;;;;;;;17.10;7.45;;;;;;;3.46;68.78;102110.09;4422732;32;20046;-74
2021/04/17 05:13:30;;;;;;;18.83;7.90;;;;;;;3.55;68.38;102107.94;4419592;32;20579;-72
2021/04/17 05:15:56;;;;;;;23.87;8.75;;;;;;;3.55;68.49;102107.94;4423450;32;20094;-73
2021/04/17 05:18:21;;;;;;;23.38;9.25;;;;;;;3.62;68.04;102114.50;4424144;32;20064;-72
2021/04/17 05:20:47;;;;;;;19.90;9.00;;;;;;;3.62;67.96;102114.50;4424352;32;20116;-74
2021/04/17 05:23:13;;;;;;;23.52;9.55;;;;;;;3.65;68.25;102113.78;4417376;32;20069;-74
2021/04/17 05:25:39;;;;;;;18.90;8.50;;;;;;;3.65;68.25;102113.78;4420376;32;20112;-74
2021/04/17 05:28:04;;;;;;;24.33;9.43;;;;;;;3.69;68.22;102116.69;4419126;32;20538;-73
2021/04/17 05:30:30;;;;;;;16.27;7.68;;;;;;;4.00;66.96;102109.13;4421051;32;20122;-72
2021/04/17 05:32:56;;;;;;;16.17;7.00;;;;;;;3.78;67.79;102111.75;4416598;32;20037;-73
2021/04/17 05:35:22;;;;;;;13.98;7.07;;;;;;;4.17;66.17;102116.28;4425385;32;20076;-72
2021/04/17 05:37:47;;;;;;;18.58;7.47;;;;;;;3.80;67.10;102103.81;4420296;32;20045;-72
2021/04/17 05:40:13;;;;;;;22.77;7.90;;;;;;;3.84;67.13;102105.53;4420354;32;20096;-72
2021/04/17 05:42:39;;;;;;;21.42;9.30;;;;;;;3.88;67.11;102108.41;4416458;32;20292;-74
2021/04/17 05:45:05;;;;;;;19.45;9.02;;;;;;;3.93;67.03;102108.16;4422352;32;20091;-72
2021/04/17 05:47:31;;;;;;;26.12;10.10;;;;;;;3.97;66.96;102109.03;4419377;32;20029;-74
2021/04/17 05:49:57;;;;;;;28.33;10.55;;;;;;;4.30;66.08;102112.22;4419658;32;20109;-72
2021/04/17 05:52:23;;;;;;;30.33;10.20;;;;;;;4.41;65.84;102104.09;4419713;32;20075;-74
2021/04/17 05:54:48;;;;;;;22.23;9.00;;;;;;;4.22;65.96;102107.66;4422031;32;20064;-73
2021/04/17 05:57:14;;;;;;;19.73;8.63;;;;;;;4.33;65.94;102111.50;4417657;32;20025;-73
2021/04/17 05:59:40;;;;;;;20.37;8.63;;;;;;;4.30;65.64;102106.66;4418888;32;20092;-73
2021/04/17 06:02:07;;;;;;;20.35;8.82;;;;;;;4.43;65.39;102110.94;4417733;32;20473;-74
2021/04/17 06:04:32;;;;;;;18.90;8.07;;;;;;;4.47;65.19;102114.59;4420030;32;20042;-72
2021/04/17 06:06:58;;;;;;;25.33;11.32;;;;;;;4.52;64.83;102111.53;4420410;32;20061;-74
2021/04/17 06:09:24;;;;;;;28.60;9.82;;;;;;;4.60;65.23;102112.50;4418149;32;20105;-73
2021/04/17 06:11:50;;;;;;;26.37;9.55;;;;;;;4.73;64.91;102109.22;4418142;32;20065;-74
2021/04/17 06:14:16;;;;;;;27.17;9.65;;;;;;;4.82;64.64;102114.56;4417386;32;20085;-73
2021/04/17 06:16:41;;;;;;;24.55;8.38;;;;;;;4.98;63.95;102113.31;4420421;32;20108;-73
2021/04/17 06:19:07;;;;;;;21.33;8.80;;;;;;;5.11;63.47;102111.19;4424084;32;20049;-73
2021/04/17 06:21:34;;;;;;;19.17;8.88;;;;;;;5.18;62.84;102109.34;4420211;32;20042;-72
2021/04/17 06:24:00;;;;;;;18.20;8.38;;;;;;;5.25;62.65;102111.47;4418089;32;20053;-73
2021/04/17 06:26:25;;;;;;;22.55;8.98;;;;;;;5.33;62.43;102114.03;4420383;32;20499;-72
2021/04/17 06:28:51;;;;;;;22.80;8.80;;;;;;;5.41;62.42;102106.59;4421630;32;20050;-73
2021/04/17 06:31:18;;;;;;;19.25;8.75;;;;;;;5.54;61.63;102110.81;4416533;32;20409;-72
2021/04/17 06:33:43;;;;;;;27.25;9.43;;;;;;;5.67;61.79;102109.44;4417698;32;20038;-73
2021/04/17 06:36:09;;;;;;;22.73;9.40;;;;;;;5.78;61.52;102104.84;4418246;32;20064;-74
2021/04/17 06:38:35;;;;;;;31.25;9.60;;;;;;;6.04;60.73;102105.72;4418416;32;20049;-73
2021/04/17 06:41:02;;;;;;;24.15;9.68;;;;;;;6.14;60.27;102105.09;4419028;32;20107;-73
2021/04/17 06:43:33;;;;;;;20.90;8.88;;;;;;;6.40;59.47;102112.69;4420493;32;20444;-72
2021/04/17 06:46:01;;;;;;;26.35;10.40;;;;;;;6.60;58.70;102116.16;4415802;32;20095;-73
2021/04/17 06:48:27;;;;;;;25.30;9.82;;;;;;;6.72;58.10;102124.31;4420619;32;20410;-72
2021/04/17 06:50:54;;;;;;;23.05;9.27;;;;;;;6.80;58.19;102118.44;4418667;32;20116;-72
2021/04/17 06:53:21;;;;;;;22.90;9.27;;;;;;;7.06;57.68;102120.38;4416380;32;20092;-73
2021/04/17 06:55:50;;;;;;;21.62;9.32;;;;;;;7.25;56.94;102120.19;4417699;32;20018;-73
2021/04/17 06:58:18;;;;;;;24.55;10.15;;;;;;;7.40;56.30;102121.97;4418047;32;20033;-72
2021/04/17 07:00:46;;;;;;;25.33;9.75;;;;;;;7.56;56.11;102117.75;4417423;32;20227;-73
2021/04/17 07:03:12;;;;;;;20.23;9.73;;;;;;;7.62;55.75;102124.63;4416897;32;20050;-72
2021/04/17 07:05:37;;;;;;;25.70;9.45;;;;;;;7.76;55.14;102116.31;4423387;32;20013;-72
2021/04/17 07:08:04;;;;;;;23.38;8.60;;;;;;;7.98;54.75;102120.12;4424305;32;20233;-72
2021/04/17 07:10:29;;;;;;;22.77;9.55;;;;;;;7.97;54.36;102113.72;4420274;32;20053;-73
2021/04/17 07:13:14;;;;;;;20.58;9.20;;;;;;;8.17;53.49;102115.06;4419506;32;20060;-73
2021/04/17 07:15:41;;;;;;;22.52;11.07;;;;;;;8.32;52.71;102113.22;4420894;32;20259;-75
2021/04/17 07:23:57;;;;;;;20.67;10.23;;;;;;;9.25;51.21;102110.47;3982649;32;15022301;-74
2021/04/17 07:26:26;;;;;;;22.98;9.43;;;;;;;9.25;51.21;102110.47;4436946;32;20064;-73
2021/04/17 07:29:03;;;;;;;21.00;10.10;;;;;;;9.02;51.43;102101.59;4434810;32;20119;-73
2021/04/17 07:31:32;;;;;;;19.30;9.20;;;;;;;9.16;50.63;102110.84;4431632;32;20096;-74
2021/04/17 07:34:11;;;;;;;21.25;9.50;;;;;;;9.22;50.47;102109.28;4435613;32;20064;-72
2021/04/17 07:36:58;;;;;;;24.48;9.80;;;;;;;9.40;49.96;102109.31;4430196;32;20092;-72
2021/04/17 07:39:40;;;;;;;18.40;8.40;;;;;;;9.66;49.25;102104.16;4432618;32;20041;-74
2021/04/17 07:44:45;;;;;;;20.88;9.35;;;;;;;10.46;47.27;102111.00;3956600;32;15723509;-72
2021/04/17 07:47:12;;;;;;;20.00;9.35;;;;;;;10.46;47.27;102111.00;4434670;32;20029;-73
2021/04/17 07:49:40;;;;;;;21.00;9.05;;;;;;;10.10;47.02;102096.16;4434025;32;20045;-72
2021/04/17 08:00:16;;;;;;;16.60;8.00;;;;;;;11.51;43.67;102107.75;3981861;32;15022513;-74
2021/04/17 08:02:45;;;;;;;21.35;9.43;;;;;;;11.51;43.67;102107.75;4432938;32;20450;-74
2021/04/17 08:05:12;;;;;;;20.77;9.30;;;;;;;11.25;43.82;102096.22;4438281;32;20105;-73
2021/04/17 08:07:38;;;;;;;16.75;9.35;;;;;;;11.49;43.47;102096.09;4431770;32;20483;-73
2021/04/17 08:10:06;;;;;;;23.83;8.82;;;;;;;11.61;43.28;102097.63;4431810;32;20037;-73
2021/04/17 08:12:35;;;;;;;23.67;9.80;;;;;;;11.88;42.82;102095.84;4435412;32;20029;-75
2021/04/17 08:15:03;;;;;;;18.92;9.27;;;;;;;11.94;42.52;102094.97;4433661;32;20100;-75
2021/04/17 08:17:29;;;;;;;16.87;8.38;;;;;;;12.13;41.80;102090.81;4428670;32;20059;-74
2021/04/17 08:19:57;;;;;;;19.48;8.80;;;;;;;12.30;41.50;102092.66;4439777;32;20042;-74
2021/04/17 08:22:24;;;;;;;19.62;8.98;;;;;;;12.45;41.02;102104.63;4434343;32;20073;-73
2021/04/17 08:24:51;;;;;;;14.55;8.60;;;;;;;12.63;40.93;102102.41;4434822;32;20048;-73
2021/04/17 08:27:17;;;;;;;19.67;9.05;;;;;;;12.80;40.49;102101.41;4431784;32;20088;-75
2021/04/17 08:29:49;;;;;;;22.35;9.07;;;;;;;12.76;40.29;102100.66;4431724;32;20466;-73
2021/04/17 08:32:32;;;;;;;19.70;9.65;;;;;;;12.95;40.00;102102.84;4433349;32;20115;-74
2021/04/17 08:46:14;;;;;;;16.77;9.43;;;;;;;15.06;36.14;102120.03;4004839;31;15016106;-73
2021/04/17 08:49:01;;;;;;;16.77;10.25;;;;;;;15.01;36.01;102120.56;4457945;32;20106;-73
2021/04/17 08:57:01;;;;;;;20.35;10.73;;;;;;;16.97;32.16;102120.12;3983484;32;15023498;-72
2021/04/17 08:59:30;;;;;;;17.15;9.60;;;;;;;16.97;32.16;102112.13;4432411;32;20051;-72
2021/04/17 09:02:02;;;;;;;14.35;10.00;;;;;;;16.79;32.37;102120.38;4432487;32;20169;-74
2021/04/17 09:04:30;;;;;;;18.90;10.30;;;;;;;16.95;31.74;102106.91;4434534;32;20069;-73
2021/04/17 09:06:57;;;;;;;18.95;10.25;;;;;;;17.12;31.38;102116.19;4429319;32;21149;-73
2021/04/17 09:09:26;;;;;;;15.40;9.98;;;;;;;17.28;31.25;102113.25;4433954;32;20063;-72
2021/04/17 09:11:55;;;;;;;21.10;10.82;;;;;;;17.57;30.65;102114.81;4431078;32;20093;-73
2021/04/17 09:17:27;;;;;;;18.77;10.32;;;;;;;18.67;29.37;102111.97;3983000;32;15022227;-75
2021/04/17 09:19:53;;;;;;;17.87;11.15;;;;;;;18.67;29.37;102111.97;4421485;32;20138;-74
2021/04/17 09:25:12;;;;;;;21.98;10.77;;;;;;;18.86;29.06;102108.00;3985819;32;15023901;-73
2021/04/17 09:27:43;;;;;;;20.85;12.15;;;;;;;18.86;29.06;102108.00;4434570;32;20074;-75
2021/04/17 09:30:12;;;;;;;18.40;11.02;;;;;;;18.84;29.02;102105.59;4428391;32;20110;-74
2021/04/17 09:35:17;;;;;;;22.67;11.27;;;;;;;19.45;27.70;102110.66;3956726;32;15727482;-74
2021/04/17 09:37:45;;;;;;;22.13;11.88;;;;;;;19.45;27.70;102110.66;4427790;32;20021;-74
2021/04/17 09:40:12;;;;;;;17.62;12.13;;;;;;;18.90;28.34;102108.69;4427698;32;20140;-73
2021/04/17 09:42:38;;;;;;;21.80;12.77;;;;;;;18.79;28.14;102113.97;4423966;32;20118;-73
2021/04/17 09:45:07;;;;;;;20.98;12.30;;;;;;;19.02;27.91;102104.97;4426902;32;20029;-73
2021/04/17 09:47:32;;;;;;;18.85;11.63;;;;;;;19.17;27.75;102109.66;4426144;32;20037;-73
2021/04/17 09:49:59;;;;;;;20.58;12.52;;;;;;;19.36;27.50;102102.06;4429104;32;20060;-73
2021/04/17 09:52:26;;;;;;;21.33;12.07;;;;;;;19.64;27.30;102100.94;4430079;32;20029;-75
2021/04/17 09:55:01;;;;;;;20.55;12.65;;;;;;;19.63;27.38;102093.63;4426829;32;20105;-74
2021/04/17 09:57:28;;;;;;;17.42;11.65;;;;;;;19.82;27.16;102101.00;4425030;32;20147;-72
2021/04/17 09:59:57;;;;;;;20.70;13.95;;;;;;;19.95;26.76;102096.00;4424759;32;20029;-74
2021/04/17 10:02:38;;;;;;;19.42;12.77;;;;;;;20.07;26.60;102091.41;4435595;32;20078;-73
2021/04/17 10:05:05;;;;;;;20.12;12.32;;;;;;;19.82;27.06;102086.72;4430248;32;20067;-74
2021/04/17 10:07:50;;;;;;;24.30;12.77;;;;;;;20.02;26.88;102095.69;4431261;32;20069;-75
2021/04/17 10:10:16;;;;;;;;;;;;;;;20.11;26.57;102083.50;4432479;32;20079;-74
2021/04/17 10:12:56;;;;;;;23.38;13.05;;;;;;;20.11;26.61;102080.63;4430276;32;19995;-74
2021/04/17 10:15:25;;;;;;;21.52;13.40;;;;;;;20.19;26.53;102079.88;4430432;32;20068;-74
2021/04/17 10:17:53;;;;;;;19.05;13.60;;;;;;;20.21;26.47;102073.69;4433678;32;20110;-73
2021/04/17 10:20:20;;;;;;;26.30;14.70;;;;;;;20.37;26.19;102076.28;4427361;32;20418;-75
2021/04/17 10:22:55;;;;;;;20.62;14.45;;;;;;;20.25;26.35;102072.28;4434425;32;20055;-73
2021/04/17 10:25:39;;;;;;;19.25;13.00;;;;;;;20.22;26.57;102067.50;4430789;32;20048;-75
2021/04/17 10:31:02;;;;;;;23.48;13.52;;;;;;;21.11;25.98;102073.75;3982907;32;15025077;-73
2021/04/17 10:33:30;;;;;;;41.15;15.43;;;;;;;21.11;25.98;102073.75;4435066;32;20095;-73
2021/04/17 10:35:58;;;;;;;25.33;13.95;;;;;;;20.68;26.27;102062.62;4431527;32;20281;-73
2021/04/17 10:41:03;;;;;;;23.37;14.10;;;;;;;21.89;25.11;102063.00;4000698;31;15015520;-73
2021/04/17 10:43:30;;;;;;;18.77;13.35;;;;;;;21.89;25.11;102063.00;4453252;32;20205;-72
2021/04/17 10:46:02;;;;;;;22.67;14.93;;;;;;;21.64;25.06;102052.72;4449912;32;20635;-74
2021/04/17 10:48:41;;;;;;;22.90;14.90;;;;;;;21.75;24.64;102060.84;4459640;32;20099;-74
2021/04/17 10:51:09;;;;;;;27.10;15.75;;;;;;;22.02;24.58;102051.28;4458439;32;20074;-74
2021/04/17 10:53:41;;;;;;;20.60;13.75;;;;;;;21.90;24.51;102053.13;4457851;32;20147;-74
2021/04/17 10:56:13;;;;;;;20.27;13.18;;;;;;;22.07;24.49;102054.31;4445153;32;20103;-73
2021/04/17 10:58:40;;;;;;;24.00;13.75;;;;;;;22.53;24.10;102046.19;4454998;32;20041;-73
2021/04/17 11:01:10;;;;;;;21.17;14.20;;;;;;;22.87;23.57;102048.44;4453068;32;20224;-74
2021/04/17 11:03:45;;;;;;;25.12;13.55;;;;;;;23.18;23.28;102046.69;4440688;32;20084;-73
2021/04/17 11:06:15;;;;;;;;;;;;;;;23.06;23.15;102049.84;4441710;32;20041;-73
2021/04/17 11:08:44;;;;;;;22.33;13.65;;;;;;;22.63;23.36;102044.84;4446082;32;20306;-73
2021/04/17 11:11:15;;;;;;;19.12;14.07;;;;;;;22.96;23.28;102031.13;4425320;32;20442;-73
2021/04/17 11:13:42;;;;;;;22.00;14.48;;;;;;;22.75;23.52;102047.44;4437547;32;20063;-73
2021/04/17 11:16:11;;;;;;;19.95;13.20;;;;;;;23.39;22.81;102050.50;4428253;32;20135;-73
2021/04/17 11:18:40;;;;;;;21.02;14.20;;;;;;;23.92;22.34;102048.19;4438133;32;20434;-75
2021/04/17 11:23:54;;;;;;;21.48;14.07;;;;;;;24.18;21.87;102043.41;3981041;32;15025873;-74
2021/04/17 11:28:59;;;;;;;23.08;13.30;;;;;;;23.75;21.86;102032.78;3982507;32;15023872;-73
2021/04/17 11:31:30;;;;;;;16.30;12.40;;;;;;;23.75;21.86;102032.78;4433182;32;20119;-73
2021/04/17 11:33:59;;;;;;;16.73;11.98;;;;;;;24.17;21.30;102036.03;4433410;32;20030;-73
2021/04/17 11:36:26;;;;;;;23.08;13.10;;;;;;;24.40;21.33;102028.50;4435060;32;20407;-73
2021/04/17 11:38:53;;;;;;;18.15;11.68;;;;;;;24.88;20.69;102041.91;4429948;32;20052;-73
2021/04/17 11:41:20;;;;;;;17.15;12.13;;;;;;;25.07;20.51;102039.50;4432455;32;20140;-74
2021/04/17 11:43:46;;;;;;;18.95;12.48;;;;;;;24.78;20.59;102040.50;4437544;32;20056;-74
2021/04/17 11:46:14;;;;;;;17.50;11.82;;;;;;;25.00;20.80;102029.22;4435857;32;20056;-74
2021/04/17 11:48:42;;;;;;;18.15;11.70;;;;;;;25.15;20.38;102041.41;4431825;32;20806;-74
2021/04/17 11:51:08;;;;;;;17.55;12.15;;;;;;;24.93;20.41;102029.69;4434791;32;20029;-73
2021/04/17 11:53:35;;;;;;;16.95;11.82;;;;;;;24.33;21.02;102028.94;4431617;32;20057;-73
2021/04/17 11:56:02;;;;;;;17.60;11.73;;;;;;;23.67;21.59;102023.00;4434132;32;20087;-73
2021/04/17 11:58:28;;;;;;;17.20;11.85;;;;;;;23.23;22.01;102027.97;4434488;32;20094;-74
2021/04/17 12:00:54;;;;;;;21.37;13.45;;;;;;;23.28;22.19;102027.31;4434496;32;20049;-75
2021/04/17 12:03:22;;;;;;;17.48;11.48;;;;;;;22.78;22.39;102025.56;4432098;32;20068;-74
2021/04/17 12:05:49;;;;;;;18.73;12.55;;;;;;;22.80;22.70;102012.31;4434447;32;20072;-74
2021/04/17 12:08:15;;;;;;;18.70;12.02;;;;;;;23.14;22.48;102022.34;4432269;32;20108;-73
2021/04/17 12:10:41;;;;;;;17.00;11.55;;;;;;;23.59;21.74;102018.16;4432791;32;20073;-74
2021/04/17 12:13:07;;;;;;;19.23;11.93;;;;;;;23.77;21.20;102010.06;4433035;32;20101;-73
2021/04/17 12:15:32;;;;;;;18.35;11.93;;;;;;;24.06;20.79;102010.00;4430921;32;20080;-73
2021/04/17 12:17:58;;;;;;;22.35;11.52;;;;;;;24.23;20.68;102010.22;4431314;32;20125;-74
2021/04/17 12:20:24;;;;;;;18.10;11.05;;;;;;;24.33;20.63;102003.81;4428015;32;20095;-74
2021/04/17 12:22:50;;;;;;;17.10;10.48;;;;;;;24.86;20.28;102001.34;4433516;32;20049;-74